sensor_id;sensor_type;location;lat;lon;timestamp;P1;durP1;ratioP1;P2;durP2;ratioP2
64515;SDS011;50891;37.380;-122.076;2022-07-01T00:00:16;25.73;;;21.60;;
64515;SDS011;50891;37.380;-122.076;2022-07-01T00:02:43;25.42;;;21.80;;
64515;SDS011;50891;37.380;-122.076;2022-07-01T00:05:12;24.37;;;21.47;;
64515;SDS011;50891;37.380;-122.076;2022-07-01T00:07:38;25.07;;;21.60;;
64515;SDS011;50891;37.380;-122.076;2022-07-01T00:10:05;24.50;;;21.35;;
64515;SDS011;50891;37.380;-122.076;2022-07-01T00:12:31;24.30;;;21.50;;
64515;SDS011;50891;37.380;-122.076;2022-07-01T00:14:57;26.40;;;21.85;;
64515;SDS011;50891;37.380;-122.076;2022-07-01T00:17:24;24.67;;;21.42;;
64515;SDS011;50891;37.380;-122.076;2022-07-01T00:19:50;25.65;;;21.70;;
64515;SDS011;50891;37.380;-122.076;2022-07-01T00:22:16;25.13;;;21.67;;
64515;SDS011;50891;37.380;-122.076;2022-07-01T00:24:43;25.65;;;21.90;;
64515;SDS011;50891;37.380;-122.076;2022-07-01T00:27:11;25.48;;;21.70;;
64515;SDS011;50891;37.380;-122.076;2022-07-01T00:29:38;25.52;;;21.70;;
64515;SDS011;50891;37.380;-122.076;2022-07-01T00:32:05;25.77;;;21.47;;
64515;SDS011;50891;37.380;-122.076;2022-07-01T00:34:31;24.23;;;21.50;;
64515;SDS011;50891;37.380;-122.076;2022-07-01T00:36:57;24.30;;;21.70;;
64515;SDS011;50891;37.380;-122.076;2022-07-01T00:39:24;27.15;;;21.80;;
64515;SDS011;50891;37.380;-122.076;2022-07-01T00:41:51;24.92;;;21.58;;
64515;SDS011;50891;37.380;-122.076;2022-07-01T00:44:20;25.70;;;21.52;;
64515;SDS011;50891;37.380;-122.076;2022-07-01T00:46:46;24.97;;;21.57;;
64515;SDS011;50891;37.380;-122.076;2022-07-01T00:49:16;25.55;;;21.60;;
64515;SDS011;50891;37.380;-122.076;2022-07-01T00:51:43;24.55;;;21.40;;
64515;SDS011;50891;37.380;-122.076;2022-07-01T00:54:10;25.65;;;21.40;;
64515;SDS011;50891;37.380;-122.076;2022-07-01T00:56:37;25.00;;;21.67;;
64515;SDS011;50891;37.380;-122.076;2022-07-01T00:59:03;25.15;;;21.50;;
64515;SDS011;50891;37.380;-122.076;2022-07-01T01:01:29;24.42;;;21.70;;
64515;SDS011;50891;37.380;-122.076;2022-07-01T01:03:56;24.85;;;21.70;;
64515;SDS011;50891;37.380;-122.076;2022-07-01T01:06:22;24.42;;;21.50;;
64515;SDS011;50891;37.380;-122.076;2022-07-01T01:08:49;25.88;;;21.67;;
64515;SDS011;50891;37.380;-122.076;2022-07-01T01:11:16;25.03;;;21.70;;
64515;SDS011;50891;37.380;-122.076;2022-07-01T01:13:42;25.42;;;21.55;;
64515;SDS011;50891;37.380;-122.076;2022-07-01T01:16:15;26.40;;;21.65;;
64515;SDS011;50891;37.380;-122.076;2022-07-01T01:18:42;24.27;;;21.50;;
64515;SDS011;50891;37.380;-122.076;2022-07-01T01:21:09;24.98;;;21.48;;
64515;SDS011;50891;37.380;-122.076;2022-07-01T01:23:35;27.45;;;21.52;;
64515;SDS011;50891;37.380;-122.076;2022-07-01T01:26:01;24.38;;;21.50;;
64515;SDS011;50891;37.380;-122.076;2022-07-01T01:28:28;24.00;;;21.40;;
64515;SDS011;50891;37.380;-122.076;2022-07-01T01:30:54;24.88;;;21.33;;
64515;SDS011;50891;37.380;-122.076;2022-07-01T01:33:20;24.75;;;21.55;;
64515;SDS011;50891;37.380;-122.076;2022-07-01T01:35:47;24.63;;;21.45;;
64515;SDS011;50891;37.380;-122.076;2022-07-01T01:38:13;25.38;;;21.48;;
64515;SDS011;50891;37.380;-122.076;2022-07-01T01:40:39;24.77;;;21.50;;
64515;SDS011;50891;37.380;-122.076;2022-07-01T01:43:05;25.13;;;21.63;;
64515;SDS011;50891;37.380;-122.076;2022-07-01T01:45:31;25.58;;;21.60;;
64515;SDS011;50891;37.380;-122.076;2022-07-01T01:47:58;24.93;;;21.50;;
64515;SDS011;50891;37.380;-122.076;2022-07-01T01:50:24;24.70;;;21.60;;
64515;SDS011;50891;37.380;-122.076;2022-07-01T01:52:50;24.42;;;21.30;;
64515;SDS011;50891;37.380;-122.076;2022-07-01T01:55:16;25.15;;;21.67;;
64515;SDS011;50891;37.380;-122.076;2022-07-01T01:57:43;25.33;;;21.58;;
64515;SDS011;50891;37.380;-122.076;2022-07-01T02:00:10;24.98;;;21.60;;
64515;SDS011;50891;37.380;-122.076;2022-07-01T02:02:36;25.33;;;21.40;;
64515;SDS011;50891;37.380;-122.076;2022-07-01T02:05:03;24.98;;;21.70;;
64515;SDS011;50891;37.380;-122.076;2022-07-01T02:07:32;23.93;;;21.43;;
64515;SDS011;50891;37.380;-122.076;2022-07-01T02:09:58;25.17;;;21.95;;
64515;SDS011;50891;37.380;-122.076;2022-07-01T02:12:24;26.40;;;21.80;;
64515;SDS011;50891;37.380;-122.076;2022-07-01T02:14:50;25.30;;;21.80;;
64515;SDS011;50891;37.380;-122.076;2022-07-01T02:17:17;25.73;;;21.50;;
64515;SDS011;50891;37.380;-122.076;2022-07-01T02:19:43;24.80;;;21.77;;
64515;SDS011;50891;37.380;-122.076;2022-07-01T02:22:09;24.55;;;21.50;;
64515;SDS011;50891;37.380;-122.076;2022-07-01T02:24:35;24.60;;;21.63;;
64515;SDS011;50891;37.380;-122.076;2022-07-01T02:27:01;24.33;;;21.63;;
64515;SDS011;50891;37.380;-122.076;2022-07-01T02:29:28;24.75;;;21.67;;
64515;SDS011;50891;37.380;-122.076;2022-07-01T02:31:54;24.10;;;21.50;;
64515;SDS011;50891;37.380;-122.076;2022-07-01T02:34:20;24.95;;;21.55;;
64515;SDS011;50891;37.380;-122.076;2022-07-01T02:36:46;26.85;;;21.85;;
64515;SDS011;50891;37.380;-122.076;2022-07-01T02:39:13;25.13;;;21.60;;
64515;SDS011;50891;37.380;-122.076;2022-07-01T02:41:39;25.83;;;21.52;;
64515;SDS011;50891;37.380;-122.076;2022-07-01T02:44:24;24.83;;;21.55;;
64515;SDS011;50891;37.380;-122.076;2022-07-01T02:46:50;26.02;;;21.63;;
64515;SDS011;50891;37.380;-122.076;2022-07-01T02:49:16;27.03;;;21.73;;
64515;SDS011;50891;37.380;-122.076;2022-07-01T02:51:42;26.33;;;21.60;;
64515;SDS011;50891;37.380;-122.076;2022-07-01T02:54:08;25.35;;;21.67;;
64515;SDS011;50891;37.380;-122.076;2022-07-01T02:56:35;25.52;;;21.70;;
64515;SDS011;50891;37.380;-122.076;2022-07-01T02:59:01;25.88;;;21.70;;
64515;SDS011;50891;37.380;-122.076;2022-07-01T03:01:27;25.30;;;21.55;;
64515;SDS011;50891;37.380;-122.076;2022-07-01T03:03:54;26.90;;;21.88;;
64515;SDS011;50891;37.380;-122.076;2022-07-01T03:06:20;26.70;;;21.90;;
64515;SDS011;50891;37.380;-122.076;2022-07-01T03:08:46;26.08;;;21.83;;
64515;SDS011;50891;37.380;-122.076;2022-07-01T03:11:12;26.13;;;21.80;;
64515;SDS011;50891;37.380;-122.076;2022-07-01T03:13:38;25.27;;;21.52;;
64515;SDS011;50891;37.380;-122.076;2022-07-01T03:16:05;25.13;;;21.48;;
64515;SDS011;50891;37.380;-122.076;2022-07-01T03:18:31;25.17;;;21.67;;
64515;SDS011;50891;37.380;-122.076;2022-07-01T03:20:57;25.25;;;21.60;;
64515;SDS011;50891;37.380;-122.076;2022-07-01T03:23:24;26.60;;;21.90;;
64515;SDS011;50891;37.380;-122.076;2022-07-01T03:25:50;24.50;;;21.60;;
64515;SDS011;50891;37.380;-122.076;2022-07-01T03:28:16;26.00;;;21.58;;
64515;SDS011;50891;37.380;-122.076;2022-07-01T03:30:42;27.30;;;22.00;;
64515;SDS011;50891;37.380;-122.076;2022-07-01T03:33:09;26.70;;;21.90;;
64515;SDS011;50891;37.380;-122.076;2022-07-01T03:35:35;26.98;;;21.80;;
64515;SDS011;50891;37.380;-122.076;2022-07-01T03:38:01;26.38;;;21.73;;
64515;SDS011;50891;37.380;-122.076;2022-07-01T03:40:29;25.35;;;21.63;;
64515;SDS011;50891;37.380;-122.076;2022-07-01T03:42:56;26.90;;;21.90;;
64515;SDS011;50891;37.380;-122.076;2022-07-01T03:45:22;24.17;;;21.57;;
64515;SDS011;50891;37.380;-122.076;2022-07-01T03:47:48;26.02;;;21.70;;
64515;SDS011;50891;37.380;-122.076;2022-07-01T03:50:16;24.77;;;21.73;;
64515;SDS011;50891;37.380;-122.076;2022-07-01T03:52:43;25.48;;;21.55;;
64515;SDS011;50891;37.380;-122.076;2022-07-01T03:55:09;24.85;;;21.50;;
64515;SDS011;50891;37.380;-122.076;2022-07-01T03:57:36;24.58;;;21.63;;
64515;SDS011;50891;37.380;-122.076;2022-07-01T04:00:03;25.65;;;21.70;;
64515;SDS011;50891;37.380;-122.076;2022-07-01T04:02:30;25.33;;;21.65;;
64515;SDS011;50891;37.380;-122.076;2022-07-01T04:04:56;26.48;;;21.65;;
64515;SDS011;50891;37.380;-122.076;2022-07-01T04:07:23;27.50;;;21.80;;
64515;SDS011;50891;37.380;-122.076;2022-07-01T04:09:51;26.53;;;21.60;;
64515;SDS011;50891;37.380;-122.076;2022-07-01T04:12:17;24.52;;;21.52;;
64515;SDS011;50891;37.380;-122.076;2022-07-01T04:14:45;24.95;;;21.60;;
64515;SDS011;50891;37.380;-122.076;2022-07-01T04:17:11;26.10;;;21.65;;
64515;SDS011;50891;37.380;-122.076;2022-07-01T04:19:37;24.47;;;21.57;;
64515;SDS011;50891;37.380;-122.076;2022-07-01T04:22:04;25.30;;;21.70;;
64515;SDS011;50891;37.380;-122.076;2022-07-01T04:24:48;25.30;;;21.63;;
64515;SDS011;50891;37.380;-122.076;2022-07-01T04:27:14;25.02;;;21.70;;
64515;SDS011;50891;37.380;-122.076;2022-07-01T04:29:40;24.83;;;21.48;;
64515;SDS011;50891;37.380;-122.076;2022-07-01T04:32:07;24.25;;;21.65;;
64515;SDS011;50891;37.380;-122.076;2022-07-01T04:34:33;24.25;;;21.42;;
64515;SDS011;50891;37.380;-122.076;2022-07-01T04:36:59;25.92;;;21.80;;
64515;SDS011;50891;37.380;-122.076;2022-07-01T04:39:25;25.25;;;21.48;;
64515;SDS011;50891;37.380;-122.076;2022-07-01T04:41:52;24.73;;;21.65;;
64515;SDS011;50891;37.380;-122.076;2022-07-01T04:44:24;24.45;;;21.55;;
64515;SDS011;50891;37.380;-122.076;2022-07-01T04:46:51;25.92;;;21.90;;
64515;SDS011;50891;37.380;-122.076;2022-07-01T04:49:17;25.73;;;21.65;;
64515;SDS011;50891;37.380;-122.076;2022-07-01T04:51:44;25.73;;;21.63;;
64515;SDS011;50891;37.380;-122.076;2022-07-01T04:54:10;25.40;;;21.77;;
64515;SDS011;50891;37.380;-122.076;2022-07-01T04:56:37;24.98;;;21.85;;
64515;SDS011;50891;37.380;-122.076;2022-07-01T04:59:04;25.65;;;21.60;;
64515;SDS011;50891;37.380;-122.076;2022-07-01T05:01:30;26.48;;;21.50;;
64515;SDS011;50891;37.380;-122.076;2022-07-01T05:03:57;25.17;;;21.60;;
64515;SDS011;50891;37.380;-122.076;2022-07-01T05:06:24;24.85;;;21.40;;
64515;SDS011;50891;37.380;-122.076;2022-07-01T05:08:50;26.73;;;21.70;;
64515;SDS011;50891;37.380;-122.076;2022-07-01T05:11:16;25.58;;;21.75;;
64515;SDS011;50891;37.380;-122.076;2022-07-01T05:13:43;25.02;;;21.52;;
64515;SDS011;50891;37.380;-122.076;2022-07-01T05:16:09;24.92;;;21.55;;
64515;SDS011;50891;37.380;-122.076;2022-07-01T05:18:36;25.73;;;21.70;;
64515;SDS011;50891;37.380;-122.076;2022-07-01T05:21:21;24.25;;;21.65;;
64515;SDS011;50891;37.380;-122.076;2022-07-01T05:24:05;25.35;;;21.50;;
64515;SDS011;50891;37.380;-122.076;2022-07-01T05:26:32;24.55;;;21.60;;
64515;SDS011;50891;37.380;-122.076;2022-07-01T05:28:59;24.80;;;21.60;;
64515;SDS011;50891;37.380;-122.076;2022-07-01T05:31:25;26.20;;;21.70;;
64515;SDS011;50891;37.380;-122.076;2022-07-01T05:33:51;25.55;;;21.60;;
64515;SDS011;50891;37.380;-122.076;2022-07-01T05:36:18;24.20;;;21.40;;
64515;SDS011;50891;37.380;-122.076;2022-07-01T05:38:44;24.95;;;21.60;;
64515;SDS011;50891;37.380;-122.076;2022-07-01T05:41:11;24.92;;;21.50;;
64515;SDS011;50891;37.380;-122.076;2022-07-01T05:43:37;24.03;;;21.40;;
64515;SDS011;50891;37.380;-122.076;2022-07-01T05:46:03;24.70;;;21.52;;
64515;SDS011;50891;37.380;-122.076;2022-07-01T05:48:30;26.23;;;21.77;;
64515;SDS011;50891;37.380;-122.076;2022-07-01T05:50:56;24.90;;;21.50;;
64515;SDS011;50891;37.380;-122.076;2022-07-01T05:53:22;24.35;;;21.60;;
64515;SDS011;50891;37.380;-122.076;2022-07-01T05:55:48;26.83;;;21.77;;
64515;SDS011;50891;37.380;-122.076;2022-07-01T05:58:15;24.00;;;21.40;;
64515;SDS011;50891;37.380;-122.076;2022-07-01T06:00:42;24.25;;;21.52;;
64515;SDS011;50891;37.380;-122.076;2022-07-01T06:03:09;24.33;;;21.50;;
64515;SDS011;50891;37.380;-122.076;2022-07-01T06:05:37;24.77;;;21.50;;
64515;SDS011;50891;37.380;-122.076;2022-07-01T06:08:04;24.67;;;21.60;;
64515;SDS011;50891;37.380;-122.076;2022-07-01T06:10:31;24.80;;;21.70;;
64515;SDS011;50891;37.380;-122.076;2022-07-01T06:12:58;24.58;;;21.40;;
64515;SDS011;50891;37.380;-122.076;2022-07-01T06:15:24;24.55;;;21.70;;
64515;SDS011;50891;37.380;-122.076;2022-07-01T06:17:51;24.60;;;21.60;;
64515;SDS011;50891;37.380;-122.076;2022-07-01T06:20:18;24.10;;;21.50;;
64515;SDS011;50891;37.380;-122.076;2022-07-01T06:22:44;25.95;;;21.58;;
64515;SDS011;50891;37.380;-122.076;2022-07-01T06:25:11;24.20;;;21.60;;
64515;SDS011;50891;37.380;-122.076;2022-07-01T06:27:38;25.20;;;21.50;;
64515;SDS011;50891;37.380;-122.076;2022-07-01T06:30:05;24.17;;;21.58;;
64515;SDS011;50891;37.380;-122.076;2022-07-01T06:32:31;25.80;;;21.70;;
64515;SDS011;50891;37.380;-122.076;2022-07-01T06:34:58;25.88;;;21.65;;
64515;SDS011;50891;37.380;-122.076;2022-07-01T06:37:24;26.98;;;21.50;;
64515;SDS011;50891;37.380;-122.076;2022-07-01T06:39:50;25.15;;;21.50;;
64515;SDS011;50891;37.380;-122.076;2022-07-01T06:42:17;24.60;;;21.52;;
64515;SDS011;50891;37.380;-122.076;2022-07-01T06:44:43;24.90;;;21.60;;
64515;SDS011;50891;37.380;-122.076;2022-07-01T06:47:09;25.40;;;21.70;;
64515;SDS011;50891;37.380;-122.076;2022-07-01T06:49:35;25.15;;;21.60;;
64515;SDS011;50891;37.380;-122.076;2022-07-01T06:52:03;24.92;;;21.70;;
64515;SDS011;50891;37.380;-122.076;2022-07-01T06:54:30;24.55;;;21.60;;
64515;SDS011;50891;37.380;-122.076;2022-07-01T06:56:57;24.40;;;21.70;;
64515;SDS011;50891;37.380;-122.076;2022-07-01T06:59:23;25.80;;;21.70;;
64515;SDS011;50891;37.380;-122.076;2022-07-01T07:01:49;24.80;;;21.80;;
64515;SDS011;50891;37.380;-122.076;2022-07-01T07:04:16;24.55;;;21.75;;
64515;SDS011;50891;37.380;-122.076;2022-07-01T07:06:46;24.42;;;21.60;;
64515;SDS011;50891;37.380;-122.076;2022-07-01T07:09:12;24.30;;;21.50;;
64515;SDS011;50891;37.380;-122.076;2022-07-01T07:11:38;25.30;;;21.80;;
64515;SDS011;50891;37.380;-122.076;2022-07-01T07:14:04;24.90;;;21.70;;
64515;SDS011;50891;37.380;-122.076;2022-07-01T07:16:31;25.83;;;21.80;;
64515;SDS011;50891;37.380;-122.076;2022-07-01T07:18:57;25.10;;;21.85;;
64515;SDS011;50891;37.380;-122.076;2022-07-01T07:21:23;24.50;;;21.80;;
64515;SDS011;50891;37.380;-122.076;2022-07-01T07:23:49;24.73;;;21.80;;
64515;SDS011;50891;37.380;-122.076;2022-07-01T07:26:16;26.15;;;21.80;;
64515;SDS011;50891;37.380;-122.076;2022-07-01T07:28:42;27.42;;;21.90;;
64515;SDS011;50891;37.380;-122.076;2022-07-01T07:31:08;25.75;;;21.90;;
64515;SDS011;50891;37.380;-122.076;2022-07-01T07:33:34;26.00;;;21.80;;
64515;SDS011;50891;37.380;-122.076;2022-07-01T07:36:01;24.50;;;21.60;;
64515;SDS011;50891;37.380;-122.076;2022-07-01T07:38:27;25.23;;;21.70;;
64515;SDS011;50891;37.380;-122.076;2022-07-01T07:40:53;27.13;;;21.80;;
64515;SDS011;50891;37.380;-122.076;2022-07-01T07:43:19;25.20;;;21.73;;
64515;SDS011;50891;37.380;-122.076;2022-07-01T07:45:45;25.20;;;21.43;;
64515;SDS011;50891;37.380;-122.076;2022-07-01T07:48:12;25.88;;;22.05;;
64515;SDS011;50891;37.380;-122.076;2022-07-01T07:50:38;25.63;;;21.92;;
64515;SDS011;50891;37.380;-122.076;2022-07-01T07:53:04;24.80;;;21.90;;
64515;SDS011;50891;37.380;-122.076;2022-07-01T07:55:30;26.88;;;22.02;;
64515;SDS011;50891;37.380;-122.076;2022-07-01T07:57:56;25.87;;;21.80;;
64515;SDS011;50891;37.380;-122.076;2022-07-01T08:00:23;25.17;;;21.75;;
64515;SDS011;50891;37.380;-122.076;2022-07-01T08:02:49;25.35;;;21.70;;
64515;SDS011;50891;37.380;-122.076;2022-07-01T08:05:15;24.70;;;21.60;;
64515;SDS011;50891;37.380;-122.076;2022-07-01T08:07:42;24.20;;;21.60;;
64515;SDS011;50891;37.380;-122.076;2022-07-01T08:10:09;24.23;;;21.50;;
64515;SDS011;50891;37.380;-122.076;2022-07-01T08:12:37;24.38;;;21.42;;
64515;SDS011;50891;37.380;-122.076;2022-07-01T08:15:04;24.10;;;21.50;;
64515;SDS011;50891;37.380;-122.076;2022-07-01T08:17:31;25.02;;;21.60;;
64515;SDS011;50891;37.380;-122.076;2022-07-01T08:19:57;25.10;;;21.60;;
64515;SDS011;50891;37.380;-122.076;2022-07-01T08:22:24;25.17;;;21.57;;
64515;SDS011;50891;37.380;-122.076;2022-07-01T08:24:50;24.35;;;21.30;;
64515;SDS011;50891;37.380;-122.076;2022-07-01T08:27:16;23.97;;;21.37;;
64515;SDS011;50891;37.380;-122.076;2022-07-01T08:29:43;23.77;;;21.17;;
64515;SDS011;50891;37.380;-122.076;2022-07-01T08:32:09;23.90;;;21.30;;
64515;SDS011;50891;37.380;-122.076;2022-07-01T08:34:35;24.70;;;21.45;;
64515;SDS011;50891;37.380;-122.076;2022-07-01T08:37:03;23.60;;;21.10;;
64515;SDS011;50891;37.380;-122.076;2022-07-01T08:39:29;23.88;;;21.30;;
64515;SDS011;50891;37.380;-122.076;2022-07-01T08:41:56;24.27;;;21.20;;
64515;SDS011;50891;37.380;-122.076;2022-07-01T08:44:23;24.85;;;21.40;;
64515;SDS011;50891;37.380;-122.076;2022-07-01T08:46:49;24.48;;;21.33;;
64515;SDS011;50891;37.380;-122.076;2022-07-01T08:49:16;23.75;;;21.20;;
64515;SDS011;50891;37.380;-122.076;2022-07-01T08:51:43;24.13;;;21.20;;
64515;SDS011;50891;37.380;-122.076;2022-07-01T08:54:09;23.85;;;21.25;;
64515;SDS011;50891;37.380;-122.076;2022-07-01T08:56:35;23.98;;;21.33;;
64515;SDS011;50891;37.380;-122.076;2022-07-01T08:59:11;23.83;;;21.13;;
64515;SDS011;50891;37.380;-122.076;2022-07-01T09:01:39;24.02;;;21.05;;
64515;SDS011;50891;37.380;-122.076;2022-07-01T09:04:18;23.75;;;21.10;;
64515;SDS011;50891;37.380;-122.076;2022-07-01T09:06:45;24.02;;;21.38;;
64515;SDS011;50891;37.380;-122.076;2022-07-01T09:09:17;23.83;;;21.23;;
64515;SDS011;50891;37.380;-122.076;2022-07-01T09:11:49;23.60;;;21.10;;
64515;SDS011;50891;37.380;-122.076;2022-07-01T09:14:23;23.50;;;21.00;;
64515;SDS011;50891;37.380;-122.076;2022-07-01T09:16:52;23.55;;;21.05;;
64515;SDS011;50891;37.380;-122.076;2022-07-01T09:19:23;23.63;;;21.13;;
64515;SDS011;50891;37.380;-122.076;2022-07-01T09:21:54;23.50;;;21.00;;
64515;SDS011;50891;37.380;-122.076;2022-07-01T09:24:26;23.55;;;21.05;;
64515;SDS011;50891;37.380;-122.076;2022-07-01T09:26:58;23.77;;;21.17;;
64515;SDS011;50891;37.380;-122.076;2022-07-01T09:29:26;23.58;;;21.08;;
64515;SDS011;50891;37.380;-122.076;2022-07-01T09:31:53;23.80;;;21.20;;
64515;SDS011;50891;37.380;-122.076;2022-07-01T09:34:19;23.42;;;20.92;;
64515;SDS011;50891;37.380;-122.076;2022-07-01T09:36:56;24.80;;;21.10;;
64515;SDS011;50891;37.380;-122.076;2022-07-01T09:39:26;23.60;;;21.02;;
64515;SDS011;50891;37.380;-122.076;2022-07-01T09:41:55;23.50;;;21.10;;
64515;SDS011;50891;37.380;-122.076;2022-07-01T09:44:22;23.60;;;21.10;;
64515;SDS011;50891;37.380;-122.076;2022-07-01T09:46:56;23.58;;;21.00;;
64515;SDS011;50891;37.380;-122.076;2022-07-01T09:49:23;23.60;;;21.00;;
64515;SDS011;50891;37.380;-122.076;2022-07-01T09:51:50;23.50;;;21.00;;
64515;SDS011;50891;37.380;-122.076;2022-07-01T09:54:17;23.60;;;21.00;;
64515;SDS011;50891;37.380;-122.076;2022-07-01T09:56:44;23.73;;;21.23;;
64515;SDS011;50891;37.380;-122.076;2022-07-01T09:59:10;23.60;;;21.03;;
64515;SDS011;50891;37.380;-122.076;2022-07-01T10:01:38;24.03;;;21.10;;
64515;SDS011;50891;37.380;-122.076;2022-07-01T10:04:06;23.83;;;21.20;;
64515;SDS011;50891;37.380;-122.076;2022-07-01T10:06:38;23.52;;;21.10;;
64515;SDS011;50891;37.380;-122.076;2022-07-01T10:14:09;23.48;;;20.98;;
64515;SDS011;50891;37.380;-122.076;2022-07-01T10:16:38;23.60;;;21.10;;
64515;SDS011;50891;37.380;-122.076;2022-07-01T10:22:01;23.33;;;20.85;;
64515;SDS011;50891;37.380;-122.076;2022-07-01T10:24:52;23.40;;;20.90;;
64515;SDS011;50891;37.380;-122.076;2022-07-01T10:27:22;23.10;;;20.70;;
64515;SDS011;50891;37.380;-122.076;2022-07-01T10:32:47;23.08;;;20.67;;
64515;SDS011;50891;37.380;-122.076;2022-07-01T10:35:14;23.30;;;20.83;;
64515;SDS011;50891;37.380;-122.076;2022-07-01T10:37:59;22.97;;;20.67;;
64515;SDS011;50891;37.380;-122.076;2022-07-01T10:40:59;23.30;;;20.90;;
64515;SDS011;50891;37.380;-122.076;2022-07-01T10:43:32;23.10;;;20.70;;
64515;SDS011;50891;37.380;-122.076;2022-07-01T10:45:59;23.20;;;20.80;;
64515;SDS011;50891;37.380;-122.076;2022-07-01T10:48:26;23.00;;;20.70;;
64515;SDS011;50891;37.380;-122.076;2022-07-01T10:50:55;23.40;;;20.90;;
64515;SDS011;50891;37.380;-122.076;2022-07-01T10:53:22;23.10;;;20.70;;
64515;SDS011;50891;37.380;-122.076;2022-07-01T10:55:52;23.33;;;20.83;;
64515;SDS011;50891;37.380;-122.076;2022-07-01T10:58:19;23.10;;;20.70;;
64515;SDS011;50891;37.380;-122.076;2022-07-01T11:01:02;23.10;;;20.70;;
64515;SDS011;50891;37.380;-122.076;2022-07-01T11:03:33;23.10;;;20.70;;
64515;SDS011;50891;37.380;-122.076;2022-07-01T11:06:02;23.10;;;20.70;;
64515;SDS011;50891;37.380;-122.076;2022-07-01T11:08:28;23.33;;;20.77;;
64515;SDS011;50891;37.380;-122.076;2022-07-01T11:10:57;23.27;;;20.77;;
64515;SDS011;50891;37.380;-122.076;2022-07-01T11:13:27;23.10;;;20.70;;
64515;SDS011;50891;37.380;-122.076;2022-07-01T11:15:53;23.15;;;20.75;;
64515;SDS011;50891;37.380;-122.076;2022-07-01T11:18:21;23.33;;;20.83;;
64515;SDS011;50891;37.380;-122.076;2022-07-01T11:20:48;23.30;;;20.90;;
64515;SDS011;50891;37.380;-122.076;2022-07-01T11:23:14;23.50;;;21.00;;
64515;SDS011;50891;37.380;-122.076;2022-07-01T11:25:41;23.30;;;20.90;;
64515;SDS011;50891;37.380;-122.076;2022-07-01T11:28:07;23.40;;;20.90;;
64515;SDS011;50891;37.380;-122.076;2022-07-01T11:30:36;23.42;;;20.92;;
64515;SDS011;50891;37.380;-122.076;2022-07-01T11:33:03;23.30;;;20.90;;
64515;SDS011;50891;37.380;-122.076;2022-07-01T11:35:30;23.60;;;21.10;;
64515;SDS011;50891;37.380;-122.076;2022-07-01T11:38:16;23.40;;;21.00;;
64515;SDS011;50891;37.380;-122.076;2022-07-01T11:41:03;23.42;;;20.92;;
64515;SDS011;50891;37.380;-122.076;2022-07-01T11:43:31;23.45;;;20.95;;
64515;SDS011;50891;37.380;-122.076;2022-07-01T11:46:03;23.77;;;21.07;;
64515;SDS011;50891;37.380;-122.076;2022-07-01T11:48:34;23.67;;;21.10;;
64515;SDS011;50891;37.380;-122.076;2022-07-01T11:51:11;23.30;;;20.90;;
64515;SDS011;50891;37.380;-122.076;2022-07-01T11:53:42;23.77;;;21.20;;
64515;SDS011;50891;37.380;-122.076;2022-07-01T11:56:10;23.50;;;21.00;;
64515;SDS011;50891;37.380;-122.076;2022-07-01T11:58:47;23.80;;;21.20;;
64515;SDS011;50891;37.380;-122.076;2022-07-01T12:01:23;23.70;;;21.10;;
64515;SDS011;50891;37.380;-122.076;2022-07-01T12:03:58;23.83;;;21.23;;
64515;SDS011;50891;37.380;-122.076;2022-07-01T12:06:27;23.70;;;21.20;;
64515;SDS011;50891;37.380;-122.076;2022-07-01T12:08:55;23.92;;;21.15;;
64515;SDS011;50891;37.380;-122.076;2022-07-01T12:11:22;23.50;;;21.00;;
64515;SDS011;50891;37.380;-122.076;2022-07-01T12:13:50;23.63;;;21.13;;
64515;SDS011;50891;37.380;-122.076;2022-07-01T12:16:18;23.87;;;21.27;;
64515;SDS011;50891;37.380;-122.076;2022-07-01T12:18:54;23.55;;;21.08;;
64515;SDS011;50891;37.380;-122.076;2022-07-01T12:21:26;23.70;;;21.20;;
64515;SDS011;50891;37.380;-122.076;2022-07-01T12:24:06;23.70;;;21.20;;
64515;SDS011;50891;37.380;-122.076;2022-07-01T12:26:35;24.50;;;21.30;;
64515;SDS011;50891;37.380;-122.076;2022-07-01T12:29:11;23.60;;;21.10;;
64515;SDS011;50891;37.380;-122.076;2022-07-01T12:31:39;23.95;;;21.35;;
64515;SDS011;50891;37.380;-122.076;2022-07-01T12:34:06;23.60;;;21.10;;
64515;SDS011;50891;37.380;-122.076;2022-07-01T12:36:32;24.20;;;21.30;;
64515;SDS011;50891;37.380;-122.076;2022-07-01T12:39:00;23.77;;;21.23;;
64515;SDS011;50891;37.380;-122.076;2022-07-01T12:41:31;24.00;;;21.40;;
64515;SDS011;50891;37.380;-122.076;2022-07-01T12:44:00;23.98;;;21.38;;
64515;SDS011;50891;37.380;-122.076;2022-07-01T12:46:27;23.70;;;21.20;;
64515;SDS011;50891;37.380;-122.076;2022-07-01T12:48:56;24.13;;;21.53;;
64515;SDS011;50891;37.380;-122.076;2022-07-01T12:51:30;23.90;;;21.30;;
64515;SDS011;50891;37.380;-122.076;2022-07-01T12:53:57;23.80;;;21.20;;
64515;SDS011;50891;37.380;-122.076;2022-07-01T12:56:25;23.90;;;21.30;;
64515;SDS011;50891;37.380;-122.076;2022-07-01T12:58:53;23.83;;;21.20;;
64515;SDS011;50891;37.380;-122.076;2022-07-01T13:01:20;23.85;;;21.25;;
64515;SDS011;50891;37.380;-122.076;2022-07-01T13:03:47;24.30;;;21.60;;
64515;SDS011;50891;37.380;-122.076;2022-07-01T13:06:13;24.00;;;21.40;;
64515;SDS011;50891;37.380;-122.076;2022-07-01T13:08:40;24.00;;;21.42;;
64515;SDS011;50891;37.380;-122.076;2022-07-01T13:11:06;24.23;;;21.35;;
64515;SDS011;50891;37.380;-122.076;2022-07-01T13:13:32;23.80;;;21.30;;
64515;SDS011;50891;37.380;-122.076;2022-07-01T13:15:58;24.52;;;21.27;;
64515;SDS011;50891;37.380;-122.076;2022-07-01T13:18:25;24.10;;;21.35;;
64515;SDS011;50891;37.380;-122.076;2022-07-01T13:20:51;23.92;;;21.33;;
64515;SDS011;50891;37.380;-122.076;2022-07-01T13:23:17;24.73;;;21.50;;
64515;SDS011;50891;37.380;-122.076;2022-07-01T13:25:43;23.95;;;21.30;;
64515;SDS011;50891;37.380;-122.076;2022-07-01T13:28:09;24.00;;;21.40;;
64515;SDS011;50891;37.380;-122.076;2022-07-01T13:30:36;23.95;;;21.35;;
64515;SDS011;50891;37.380;-122.076;2022-07-01T13:33:02;23.75;;;21.17;;
64515;SDS011;50891;37.380;-122.076;2022-07-01T13:35:29;23.77;;;21.20;;
64515;SDS011;50891;37.380;-122.076;2022-07-01T13:37:55;23.80;;;21.25;;
64515;SDS011;50891;37.380;-122.076;2022-07-01T13:40:21;23.90;;;21.25;;
64515;SDS011;50891;37.380;-122.076;2022-07-01T13:42:48;24.05;;;21.45;;
64515;SDS011;50891;37.380;-122.076;2022-07-01T13:45:14;23.70;;;21.13;;
64515;SDS011;50891;37.380;-122.076;2022-07-01T13:47:41;24.08;;;21.40;;
64515;SDS011;50891;37.380;-122.076;2022-07-01T13:50:07;23.98;;;21.38;;
64515;SDS011;50891;37.380;-122.076;2022-07-01T13:52:34;24.57;;;21.40;;
64515;SDS011;50891;37.380;-122.076;2022-07-01T13:55:00;24.45;;;21.50;;
64515;SDS011;50891;37.380;-122.076;2022-07-01T13:57:26;23.70;;;21.20;;